createdAt,value
2022-08-19T00:02:00.220Z,19.30
2022-08-19T00:04:31.058Z,19.30
2022-08-19T00:06:58.811Z,19.30
2022-08-19T00:09:26.709Z,19.20
2022-08-19T00:11:56.173Z,19.20
2022-08-19T00:14:24.836Z,19.20
2022-08-19T00:16:55.221Z,19.20
2022-08-19T00:19:23.180Z,19.10
2022-08-19T00:21:50.303Z,19.00
2022-08-19T00:24:17.171Z,19.00
2022-08-19T00:26:44.800Z,18.90
2022-08-19T00:29:13.247Z,18.90
2022-08-19T00:31:40.331Z,18.90
2022-08-19T00:34:07.016Z,18.80
2022-08-19T00:36:34.188Z,18.80
2022-08-19T00:39:01.418Z,18.80
2022-08-19T00:41:29.179Z,18.70
2022-08-19T00:44:05.206Z,18.80
2022-08-19T00:46:34.109Z,18.80
2022-08-19T00:49:03.272Z,18.70
2022-08-19T00:51:33.368Z,18.70
2022-08-19T00:54:01.983Z,18.70
2022-08-19T00:56:29.721Z,18.70
2022-08-19T00:58:59.134Z,18.70
2022-08-19T01:01:26.364Z,18.70
2022-08-19T01:03:58.218Z,18.70
2022-08-19T01:06:26.627Z,18.70
2022-08-19T01:08:54.405Z,18.70
2022-08-19T01:11:21.309Z,18.60
2022-08-19T01:13:49.977Z,18.60
2022-08-19T01:16:19.744Z,18.60
2022-08-19T01:18:46.515Z,18.60
2022-08-19T01:21:24.727Z,18.60
2022-08-19T01:23:51.753Z,18.50
2022-08-19T01:26:22.667Z,18.50
2022-08-19T01:28:54.306Z,18.50
2022-08-19T01:31:32.689Z,18.50
2022-08-19T01:34:01.419Z,18.50
2022-08-19T01:36:30.178Z,18.60
2022-08-19T01:38:57.700Z,18.70
2022-08-19T01:41:24.693Z,18.70
2022-08-19T01:44:13.626Z,18.60
2022-08-19T01:46:40.251Z,18.60
2022-08-19T01:49:09.041Z,18.60
2022-08-19T01:51:39.834Z,18.50
2022-08-19T01:54:10.298Z,18.50
2022-08-19T01:56:36.951Z,18.50
2022-08-19T01:59:09.263Z,18.50
2022-08-19T02:01:36.040Z,18.50
2022-08-19T02:04:03.050Z,18.50
2022-08-19T02:06:30.682Z,18.50
2022-08-19T02:08:57.925Z,18.60
2022-08-19T02:11:32.278Z,18.60
2022-08-19T02:14:00.995Z,18.70
2022-08-19T02:16:27.722Z,18.70
2022-08-19T02:18:55.598Z,18.70
2022-08-19T02:21:24.064Z,18.70
2022-08-19T02:23:51.844Z,18.80
2022-08-19T02:26:20.135Z,18.80
2022-08-19T02:28:46.918Z,18.80
2022-08-19T02:31:16.634Z,18.80
2022-08-19T02:33:43.267Z,18.80
2022-08-19T02:36:12.738Z,18.80
2022-08-19T02:38:47.082Z,18.80
2022-08-19T02:41:26.646Z,18.90
2022-08-19T02:44:29.448Z,18.90
2022-08-19T02:46:41.629Z,19.00
2022-08-19T02:49:09.134Z,18.90
2022-08-19T02:51:40.140Z,19.00
2022-08-19T02:54:08.347Z,19.00
2022-08-19T02:56:40.526Z,19.00
2022-08-19T03:01:41.995Z,19.00
2022-08-19T03:04:16.488Z,19.00
2022-08-19T03:06:45.035Z,19.00
2022-08-19T03:09:12.876Z,18.90
2022-08-19T03:11:40.029Z,18.90
2022-08-19T03:14:08.629Z,18.80
2022-08-19T03:16:45.866Z,18.80
2022-08-19T03:19:13.045Z,18.80
2022-08-19T03:21:39.712Z,18.80
2022-08-19T03:24:09.435Z,18.80
2022-08-19T03:26:40.766Z,18.80
2022-08-19T03:29:09.781Z,18.80
2022-08-19T03:31:43.584Z,18.90
2022-08-19T03:34:18.827Z,18.90
2022-08-19T03:36:46.924Z,18.90
2022-08-19T03:39:14.424Z,18.90
2022-08-19T03:41:45.074Z,18.90
2022-08-19T03:44:17.807Z,18.90
2022-08-19T03:46:53.314Z,19.00
2022-08-19T03:49:21.053Z,18.90
2022-08-19T03:51:49.627Z,18.90
2022-08-19T03:54:19.789Z,19.00
2022-08-19T03:56:48.588Z,19.00
2022-08-19T03:59:19.938Z,19.00
2022-08-19T04:01:46.709Z,19.00
2022-08-19T04:04:13.382Z,19.00
2022-08-19T04:06:40.579Z,19.00
2022-08-19T04:09:11.655Z,19.00
2022-08-19T04:11:44.483Z,19.00
2022-08-19T04:14:20.312Z,19.00
2022-08-19T04:16:48.844Z,19.00
2022-08-19T04:19:17.369Z,19.00
2022-08-19T04:21:46.113Z,19.00
2022-08-19T04:24:14.137Z,19.00
2022-08-19T04:26:41.207Z,19.00
2022-08-19T04:29:14.625Z,19.00
2022-08-19T04:31:42.834Z,19.00
2022-08-19T04:34:11.842Z,19.00
2022-08-19T04:36:41.427Z,18.90
2022-08-19T04:39:16.906Z,18.90
2022-08-19T04:42:02.593Z,18.80
2022-08-19T04:44:31.623Z,18.70
2022-08-19T04:47:01.358Z,18.60
2022-08-19T04:49:28.608Z,18.60
2022-08-19T04:51:55.846Z,18.60
2022-08-19T04:54:37.917Z,18.60
2022-08-19T04:57:07.599Z,18.50
2022-08-19T04:59:34.868Z,18.60
2022-08-19T05:02:01.592Z,18.50
2022-08-19T05:04:32.817Z,18.50
2022-08-19T05:07:01.175Z,18.50
2022-08-19T05:09:33.046Z,18.50
2022-08-19T05:12:16.615Z,18.40
2022-08-19T05:14:44.245Z,18.40
2022-08-19T05:17:27.233Z,18.30
2022-08-19T05:20:13.781Z,18.40
2022-08-19T05:22:41.546Z,18.40
2022-08-19T05:25:13.496Z,18.40
2022-08-19T05:27:41.739Z,18.50
2022-08-19T05:30:09.093Z,18.50
2022-08-19T05:32:35.861Z,18.50
2022-08-19T05:35:02.582Z,18.50
2022-08-19T05:37:29.838Z,18.40
2022-08-19T05:39:56.791Z,18.50
2022-08-19T05:42:24.314Z,18.50
2022-08-19T05:44:51.736Z,18.50
2022-08-19T05:47:22.986Z,18.60
2022-08-19T05:49:51.575Z,18.60
2022-08-19T05:52:19.356Z,18.60
2022-08-19T05:54:50.953Z,18.60
2022-08-19T05:57:19.744Z,18.60
2022-08-19T05:59:49.033Z,18.60
2022-08-19T06:02:15.836Z,18.60
2022-08-19T06:04:43.943Z,18.60
2022-08-19T06:07:12.000Z,18.60
2022-08-19T06:09:39.119Z,18.60
2022-08-19T06:12:06.077Z,18.60
2022-08-19T06:14:35.417Z,18.60
2022-08-19T06:17:07.615Z,18.70
2022-08-19T06:19:34.661Z,18.70
2022-08-19T06:22:08.271Z,18.70
2022-08-19T06:24:36.206Z,18.70
2022-08-19T06:27:04.109Z,18.60
2022-08-19T06:29:31.116Z,18.60
2022-08-19T06:32:00.232Z,18.60
2022-08-19T06:34:29.374Z,18.70
2022-08-19T06:36:58.348Z,18.60
2022-08-19T06:39:27.094Z,18.70
2022-08-19T06:41:58.667Z,18.80
2022-08-19T06:44:30.509Z,18.80
2022-08-19T06:46:59.299Z,18.90
2022-08-19T06:49:31.935Z,18.90
2022-08-19T06:52:00.169Z,19.00
2022-08-19T06:54:31.130Z,19.00
2022-08-19T06:56:59.762Z,19.00
2022-08-19T06:59:29.468Z,19.10
2022-08-19T07:01:57.341Z,19.10
2022-08-19T07:04:28.639Z,19.20
2022-08-19T07:07:01.279Z,19.20
2022-08-19T07:09:57.932Z,19.20
2022-08-19T07:12:35.477Z,19.20
2022-08-19T07:15:04.208Z,19.10
2022-08-19T07:17:31.089Z,19.00
2022-08-19T07:19:57.862Z,19.00
2022-08-19T07:22:33.533Z,19.00
2022-08-19T07:25:00.524Z,19.00
2022-08-19T07:27:27.193Z,19.00
2022-08-19T07:29:57.133Z,19.00
2022-08-19T07:32:28.419Z,18.90
2022-08-19T07:34:57.090Z,18.90
2022-08-19T07:37:32.525Z,18.90
2022-08-19T07:40:00.070Z,18.80
2022-08-19T07:42:27.556Z,18.80
2022-08-19T07:44:54.210Z,18.80
2022-08-19T07:47:48.873Z,18.80
2022-08-19T07:50:10.244Z,18.80
2022-08-19T07:52:39.552Z,18.80
2022-08-19T07:55:39.940Z,18.80
2022-08-19T07:57:55.571Z,18.80
2022-08-19T08:00:24.396Z,18.90
2022-08-19T08:02:51.523Z,19.00
2022-08-19T08:05:39.668Z,18.90
2022-08-19T08:08:28.371Z,19.00
2022-08-19T08:10:56.897Z,19.00
2022-08-19T08:13:24.954Z,18.90
2022-08-19T08:15:51.712Z,18.90
2022-08-19T08:18:21.650Z,19.00
2022-08-19T08:20:48.585Z,19.00
2022-08-19T08:23:26.392Z,19.00
2022-08-19T08:25:56.194Z,19.10
2022-08-19T08:28:23.984Z,19.00
2022-08-19T08:30:52.789Z,19.00
2022-08-19T08:33:33.112Z,19.00
2022-08-19T08:36:01.887Z,19.00
2022-08-19T08:38:39.100Z,19.00
2022-08-19T08:41:32.854Z,19.00
2022-08-19T08:43:59.895Z,19.00
2022-08-19T08:46:54.523Z,19.00
2022-08-19T08:49:25.026Z,19.00
2022-08-19T08:52:08.215Z,19.00
2022-08-19T08:54:54.777Z,19.00
2022-08-19T08:57:41.055Z,19.00
2022-08-19T09:00:16.019Z,19.00
2022-08-19T09:02:43.795Z,18.90
2022-08-19T09:05:16.741Z,19.00
2022-08-19T09:08:05.991Z,19.10
2022-08-19T09:10:44.306Z,19.10
2022-08-19T09:13:32.229Z,19.20
2022-08-19T09:16:15.797Z,19.30
2022-08-19T09:18:48.040Z,19.30
2022-08-19T09:21:16.196Z,19.40
2022-08-19T09:23:44.473Z,19.40
2022-08-19T09:26:14.483Z,19.50
2022-08-19T09:28:45.120Z,19.60
2022-08-19T09:31:18.273Z,19.60
2022-08-19T09:33:45.102Z,19.60
2022-08-19T09:36:14.580Z,19.70
2022-08-19T09:38:57.850Z,19.80
2022-08-19T09:41:25.954Z,19.80
2022-08-19T09:43:57.557Z,19.70
2022-08-19T09:46:26.888Z,19.70
2022-08-19T09:48:53.989Z,19.70
2022-08-19T09:51:24.373Z,19.70
2022-08-19T09:53:52.905Z,19.60
2022-08-19T09:56:20.689Z,19.70
2022-08-19T09:58:47.477Z,19.60
2022-08-19T10:01:25.587Z,19.50
2022-08-19T10:03:55.786Z,19.40
2022-08-19T10:06:45.735Z,19.40
2022-08-19T10:09:11.815Z,19.40
2022-08-19T10:11:48.928Z,19.40
2022-08-19T10:14:23.397Z,19.30
2022-08-19T10:16:51.625Z,19.30
2022-08-19T10:19:25.887Z,19.40
2022-08-19T10:21:54.159Z,19.30
2022-08-19T10:24:21.573Z,19.50
2022-08-19T10:26:57.182Z,19.40
2022-08-19T10:29:32.779Z,19.40
2022-08-19T10:32:03.152Z,19.50
2022-08-19T10:34:31.308Z,19.50
2022-08-19T10:37:00.798Z,19.50
2022-08-19T10:39:32.919Z,19.50
2022-08-19T10:42:11.578Z,19.40
2022-08-19T10:44:38.519Z,19.40
2022-08-19T10:47:17.610Z,19.30
2022-08-19T10:50:11.704Z,19.30
2022-08-19T10:52:49.046Z,19.40
2022-08-19T10:55:36.932Z,19.30
2022-08-19T10:58:03.758Z,19.20
2022-08-19T11:00:32.396Z,19.20
2022-08-19T11:02:59.169Z,19.10
2022-08-19T11:05:25.815Z,19.20
2022-08-19T11:07:52.954Z,19.20
2022-08-19T11:10:21.914Z,19.30
2022-08-19T11:12:49.546Z,19.30
2022-08-19T11:15:16.730Z,19.40
2022-08-19T11:17:44.339Z,19.50
2022-08-19T11:20:13.411Z,19.60
2022-08-19T11:22:41.898Z,19.70
2022-08-19T11:25:11.730Z,19.80
2022-08-19T11:27:42.920Z,19.80
2022-08-19T11:30:12.911Z,19.90
2022-08-19T11:32:45.905Z,19.90
2022-08-19T11:35:16.797Z,19.80
2022-08-19T11:37:43.655Z,19.70
2022-08-19T11:40:11.047Z,19.60
2022-08-19T11:42:56.462Z,19.50
2022-08-19T11:45:24.780Z,19.50
2022-08-19T11:47:51.438Z,19.50
2022-08-19T11:50:18.907Z,19.50
2022-08-19T11:52:46.471Z,19.30
2022-08-19T11:55:14.457Z,19.40
2022-08-19T11:57:42.119Z,19.40
2022-08-19T12:00:10.937Z,19.50
2022-08-19T12:02:37.547Z,19.50
2022-08-19T12:05:07.913Z,19.40
2022-08-19T12:07:37.085Z,19.40
2022-08-19T12:10:04.047Z,19.40
2022-08-19T12:12:31.041Z,19.40
2022-08-19T12:14:59.135Z,19.40
2022-08-19T12:17:27.382Z,19.50
2022-08-19T12:19:55.157Z,19.40
2022-08-19T12:22:22.477Z,19.40
2022-08-19T12:24:51.658Z,19.40
2022-08-19T12:27:31.875Z,19.40
2022-08-19T12:30:02.489Z,19.40
2022-08-19T12:32:29.224Z,19.40
2022-08-19T12:34:55.909Z,19.40
2022-08-19T12:37:22.538Z,19.40
2022-08-19T12:39:49.243Z,19.30
2022-08-19T12:42:16.483Z,19.40
2022-08-19T12:44:44.116Z,19.40
2022-08-19T12:47:13.947Z,19.30
2022-08-19T12:49:54.132Z,19.30
2022-08-19T12:52:23.977Z,19.30
2022-08-19T12:54:54.690Z,19.30
2022-08-19T12:57:24.466Z,19.30
2022-08-19T13:00:01.444Z,19.20
2022-08-19T13:02:28.199Z,19.20
2022-08-19T13:04:54.886Z,19.20
2022-08-19T13:07:22.406Z,19.20
2022-08-19T13:09:52.002Z,19.20
2022-08-19T13:12:21.139Z,19.10
2022-08-19T13:14:51.977Z,19.10
2022-08-19T13:17:20.634Z,19.20
2022-08-19T13:19:47.505Z,19.10
2022-08-19T13:22:15.001Z,19.10
2022-08-19T13:24:46.906Z,19.20
2022-08-19T13:27:14.239Z,19.20
2022-08-19T13:30:00.974Z,19.20
2022-08-19T13:32:46.400Z,19.10
2022-08-19T13:35:16.688Z,19.10
2022-08-19T13:37:43.870Z,19.10
2022-08-19T13:40:24.745Z,19.20
2022-08-19T13:42:54.473Z,19.20
2022-08-19T13:45:24.081Z,19.20
2022-08-19T13:47:57.099Z,19.10
2022-08-19T13:50:29.525Z,19.10
2022-08-19T13:52:57.123Z,19.10
2022-08-19T13:55:25.342Z,19.10
2022-08-19T13:58:01.010Z,19.20
2022-08-19T14:00:32.695Z,19.20
2022-08-19T14:02:59.425Z,19.20
2022-08-19T14:05:27.910Z,19.20
2022-08-19T14:07:54.851Z,19.10
2022-08-19T14:10:22.190Z,19.10
2022-08-19T14:12:49.036Z,19.10
2022-08-19T14:15:16.667Z,19.10
2022-08-19T14:17:45.395Z,19.00
2022-08-19T14:20:17.605Z,19.00
2022-08-19T14:22:46.693Z,19.00
2022-08-19T14:25:18.551Z,19.00
2022-08-19T14:27:46.007Z,19.00
2022-08-19T14:30:17.996Z,19.00
2022-08-19T14:32:44.740Z,19.00
2022-08-19T14:35:13.579Z,19.10
2022-08-19T14:37:45.656Z,19.10
2022-08-19T14:40:14.863Z,19.20
2022-08-19T14:42:42.828Z,19.20
2022-08-19T14:45:10.506Z,19.20
2022-08-19T14:47:39.789Z,19.20
2022-08-19T14:50:18.009Z,19.10
2022-08-19T14:52:45.980Z,19.20
2022-08-19T14:55:12.652Z,19.20
2022-08-19T14:57:42.068Z,19.20
2022-08-19T15:00:13.760Z,19.20
2022-08-19T15:02:41.419Z,19.20
2022-08-19T15:05:08.599Z,19.20
2022-08-19T15:07:35.242Z,19.20
2022-08-19T15:10:01.978Z,19.20
2022-08-19T15:12:28.666Z,19.20
2022-08-19T15:14:56.751Z,19.20
2022-08-19T15:17:43.281Z,19.10
2022-08-19T15:20:13.427Z,19.10
2022-08-19T15:22:40.836Z,19.10
2022-08-19T15:25:08.907Z,19.20
2022-08-19T15:27:39.863Z,19.20
2022-08-19T15:30:09.221Z,19.10
2022-08-19T15:32:37.382Z,19.00
2022-08-19T15:35:06.592Z,19.00
2022-08-19T15:37:34.422Z,19.00
2022-08-19T15:40:05.874Z,19.00
2022-08-19T15:42:33.022Z,19.00
2022-08-19T15:45:00.693Z,19.10
2022-08-19T15:47:34.899Z,19.00
2022-08-19T15:50:21.148Z,19.00
2022-08-19T15:52:55.714Z,19.00
2022-08-19T15:55:33.601Z,19.00
2022-08-19T15:58:28.334Z,19.00
2022-08-19T16:01:20.299Z,18.90
2022-08-19T16:04:13.979Z,19.00
2022-08-19T16:06:52.059Z,19.00
2022-08-19T16:09:25.095Z,19.00
2022-08-19T16:11:56.982Z,19.00
2022-08-19T16:14:26.196Z,19.00
2022-08-19T16:16:55.390Z,19.00
2022-08-19T16:19:22.420Z,19.00
2022-08-19T16:21:52.609Z,18.90
2022-08-19T16:24:23.366Z,18.90
2022-08-19T16:26:50.193Z,18.80
2022-08-19T16:29:34.505Z,18.80
2022-08-19T16:32:10.265Z,18.80
2022-08-19T16:34:38.722Z,18.80
2022-08-19T16:37:05.563Z,18.80
2022-08-19T16:39:32.447Z,18.80
2022-08-19T16:41:59.408Z,18.80
2022-08-19T16:44:29.492Z,18.70
2022-08-19T16:46:59.049Z,18.70
2022-08-19T16:49:53.884Z,18.70
2022-08-19T16:52:14.940Z,18.70
2022-08-19T16:54:43.684Z,18.70
2022-08-19T16:57:12.268Z,18.70
2022-08-19T16:59:44.144Z,18.70
2022-08-19T17:02:17.422Z,18.80
2022-08-19T17:04:44.088Z,18.90
2022-08-19T17:07:22.662Z,18.90
2022-08-19T17:09:50.467Z,18.90
2022-08-19T17:12:17.447Z,18.90
2022-08-19T17:14:45.963Z,18.90
2022-08-19T17:17:12.791Z,18.90
2022-08-19T17:19:44.485Z,18.90
2022-08-19T17:22:11.592Z,18.80
2022-08-19T17:24:38.626Z,18.80
2022-08-19T17:27:07.423Z,18.70
2022-08-19T17:29:34.220Z,18.70
2022-08-19T17:32:01.851Z,18.70
2022-08-19T17:34:28.521Z,18.60
2022-08-19T17:36:57.048Z,18.70
2022-08-19T17:39:24.006Z,18.70
2022-08-19T17:41:50.834Z,18.60
2022-08-19T17:44:18.815Z,18.50
2022-08-19T17:46:46.596Z,18.50
2022-08-19T17:49:14.165Z,18.40
2022-08-19T17:51:46.563Z,18.50
2022-08-19T17:54:18.570Z,18.40
2022-08-19T17:56:46.262Z,18.40
2022-08-19T17:59:14.715Z,18.40
2022-08-19T18:01:53.331Z,18.40
2022-08-19T18:04:23.098Z,18.40
2022-08-19T18:06:53.368Z,18.40
2022-08-19T18:09:24.720Z,18.40
2022-08-19T18:11:57.142Z,18.40
2022-08-19T18:14:32.985Z,18.30
2022-08-19T18:17:13.903Z,18.30
2022-08-19T18:19:43.218Z,18.40
2022-08-19T18:22:26.930Z,18.30
2022-08-19T18:24:53.952Z,18.30
2022-08-19T18:27:20.889Z,18.30
2022-08-19T18:29:47.908Z,18.20
2022-08-19T18:32:23.060Z,18.20
2022-08-19T18:34:51.160Z,18.20
2022-08-19T18:37:17.814Z,18.20
2022-08-19T18:40:03.216Z,18.20
2022-08-19T18:42:48.772Z,18.30
2022-08-19T18:45:34.304Z,18.30
2022-08-19T18:48:30.295Z,18.30
2022-08-19T18:50:58.999Z,18.30
2022-08-19T18:53:27.796Z,18.30
2022-08-19T18:55:55.140Z,18.20
2022-08-19T18:58:26.401Z,18.20
2022-08-19T19:00:56.872Z,18.20
2022-08-19T19:03:25.614Z,18.20
2022-08-19T19:05:52.794Z,18.10
2022-08-19T19:08:19.767Z,18.10
2022-08-19T19:10:47.638Z,18.10
2022-08-19T19:13:19.056Z,18.00
2022-08-19T19:15:45.759Z,18.00
2022-08-19T19:18:13.528Z,18.00
2022-08-19T19:20:43.039Z,18.00
2022-08-19T19:23:09.810Z,18.00
2022-08-19T19:25:50.550Z,18.00
2022-08-19T19:28:27.897Z,18.00
2022-08-19T19:30:58.389Z,18.00
2022-08-19T19:33:26.757Z,18.00
2022-08-19T19:35:53.512Z,18.00
2022-08-19T19:38:20.236Z,18.00
2022-08-19T19:40:46.996Z,18.00
2022-08-19T19:43:16.999Z,17.90
2022-08-19T19:45:43.734Z,17.90
2022-08-19T19:48:12.936Z,17.90
2022-08-19T19:50:39.609Z,17.90
2022-08-19T19:53:06.378Z,17.90
2022-08-19T19:55:33.067Z,17.80
2022-08-19T19:57:59.825Z,17.80
2022-08-19T20:00:26.529Z,17.80
2022-08-19T20:02:56.069Z,17.80
2022-08-19T20:05:23.348Z,17.80
2022-08-19T20:08:10.381Z,17.80
2022-08-19T20:10:37.810Z,17.70
2022-08-19T20:13:05.424Z,17.70
2022-08-19T20:15:32.918Z,17.70
2022-08-19T20:18:00.753Z,17.70
2022-08-19T20:20:27.887Z,17.70
2022-08-19T20:22:55.046Z,17.70
2022-08-19T20:25:22.454Z,17.70
2022-08-19T20:27:49.973Z,17.70
2022-08-19T20:30:20.086Z,17.70
2022-08-19T20:32:50.167Z,17.60
2022-08-19T20:35:18.926Z,17.60
2022-08-19T20:37:45.643Z,17.60
2022-08-19T20:40:13.782Z,17.70
2022-08-19T20:42:43.217Z,17.70
2022-08-19T20:45:33.292Z,17.60
2022-08-19T20:48:02.643Z,17.60
2022-08-19T20:50:30.286Z,17.50
2022-08-19T20:52:58.287Z,17.60
2022-08-19T20:55:25.915Z,17.60
2022-08-19T20:57:53.311Z,17.50
2022-08-19T21:00:20.271Z,17.50
2022-08-19T21:02:47.079Z,17.50
2022-08-19T21:05:14.938Z,17.60
2022-08-19T21:07:41.850Z,17.60
2022-08-19T21:10:08.772Z,17.50
2022-08-19T21:12:35.615Z,17.60
2022-08-19T21:15:02.426Z,17.60
2022-08-19T21:17:29.098Z,17.60
2022-08-19T21:19:55.879Z,17.60
2022-08-19T21:22:22.634Z,17.70
2022-08-19T21:24:49.273Z,17.70
2022-08-19T21:27:15.930Z,17.70
2022-08-19T21:29:43.111Z,17.80
2022-08-19T21:32:14.442Z,17.80
2022-08-19T21:34:43.923Z,17.90
2022-08-19T21:37:24.735Z,17.90
2022-08-19T21:39:53.581Z,17.90
2022-08-19T21:42:20.979Z,17.90
2022-08-19T21:44:47.912Z,17.90
2022-08-19T21:47:14.723Z,17.80
2022-08-19T21:49:41.527Z,17.90
2022-08-19T21:52:08.668Z,17.90
2022-08-19T21:54:38.563Z,17.80
2022-08-19T21:57:10.007Z,17.80
2022-08-19T21:59:43.941Z,17.80
2022-08-19T22:02:20.997Z,17.80
2022-08-19T22:04:49.472Z,17.80
2022-08-19T22:07:16.169Z,17.70
2022-08-19T22:09:44.469Z,17.70
2022-08-19T22:12:22.650Z,17.70
2022-08-19T22:14:50.165Z,17.60
2022-08-19T22:17:17.528Z,17.60
2022-08-19T22:19:44.483Z,17.50
2022-08-19T22:22:11.573Z,17.50
2022-08-19T22:24:38.533Z,17.40
2022-08-19T22:27:06.710Z,17.40
2022-08-19T22:29:36.443Z,17.40
2022-08-19T22:32:25.613Z,17.40
2022-08-19T22:34:51.705Z,17.50
2022-08-19T22:37:18.444Z,17.50
2022-08-19T22:39:45.385Z,17.50
2022-08-19T22:42:12.122Z,17.50
2022-08-19T22:44:38.773Z,17.40
2022-08-19T22:47:05.548Z,17.40
2022-08-19T22:49:32.523Z,17.40
2022-08-19T22:52:18.124Z,17.50
2022-08-19T22:54:51.889Z,17.50
2022-08-19T22:57:20.539Z,17.50
2022-08-19T22:59:49.418Z,17.50
2022-08-19T23:02:29.082Z,17.50
2022-08-19T23:04:55.906Z,17.50
2022-08-19T23:07:23.618Z,17.50
2022-08-19T23:09:50.613Z,17.40
2022-08-19T23:12:30.667Z,17.30
2022-08-19T23:15:02.604Z,17.30
2022-08-19T23:17:29.282Z,17.30
2022-08-19T23:19:55.971Z,17.20
2022-08-19T23:22:25.179Z,17.30
2022-08-19T23:24:56.175Z,17.30
2022-08-19T23:27:41.761Z,17.30
2022-08-19T23:30:27.746Z,17.30
2022-08-19T23:33:06.944Z,17.20
2022-08-19T23:35:38.245Z,17.20
2022-08-19T23:38:06.694Z,17.20
2022-08-19T23:40:35.006Z,17.20
2022-08-19T23:43:02.793Z,17.20
2022-08-19T23:45:38.399Z,17.20
2022-08-19T23:48:06.367Z,17.20
2022-08-19T23:50:34.041Z,17.10
2022-08-19T23:53:01.559Z,17.10
2022-08-19T23:55:33.809Z,17.10
2022-08-19T23:58:01.144Z,17.10
